createdAt,value
2022-09-12T00:04:54.422Z,17.05
2022-09-12T00:09:55.761Z,17.06
2022-09-12T00:14:57.111Z,17.06
2022-09-12T00:19:59.381Z,17.06
2022-09-12T00:25:00.985Z,16.99
2022-09-12T00:30:02.258Z,16.90
2022-09-12T00:35:03.779Z,16.90
2022-09-12T00:40:05.543Z,16.82
2022-09-12T00:45:19.600Z,16.91
2022-09-12T00:50:20.922Z,16.89
2022-09-12T00:55:31.961Z,16.88
2022-09-12T01:00:33.637Z,16.86
2022-09-12T01:05:39.487Z,16.82
2022-09-12T01:10:42.382Z,16.74
2022-09-12T01:15:43.717Z,16.77
2022-09-12T01:21:00.036Z,16.78
2022-09-12T01:26:16.307Z,16.70
2022-09-12T01:32:01.416Z,16.64
2022-09-12T01:37:24.964Z,16.60
2022-09-12T01:42:41.087Z,16.55
2022-09-12T01:47:58.734Z,16.38
2022-09-12T01:53:06.900Z,16.40
2022-09-12T01:58:12.460Z,16.40
2022-09-12T02:03:20.053Z,16.23
2022-09-12T02:08:47.140Z,16.26
2022-09-12T02:13:58.011Z,16.30
2022-09-12T02:19:07.327Z,16.26
2022-09-12T02:24:14.040Z,16.22
2022-09-12T02:29:15.907Z,16.15
2022-09-12T02:34:33.092Z,16.06
2022-09-12T02:39:35.021Z,16.10
2022-09-12T02:44:36.910Z,15.99
2022-09-12T02:49:38.477Z,15.92
2022-09-12T02:54:40.366Z,15.89
2022-09-12T02:59:41.946Z,15.90
2022-09-12T03:05:01.630Z,15.96
2022-09-12T03:10:24.670Z,15.87
2022-09-12T03:15:29.087Z,15.87
2022-09-12T03:20:45.466Z,15.77
2022-09-12T03:25:57.346Z,15.81
2022-09-12T03:30:59.497Z,15.79
2022-09-12T03:36:00.857Z,15.78
2022-09-12T03:41:02.116Z,15.73
2022-09-12T03:46:03.488Z,15.67
2022-09-12T03:51:08.001Z,15.61
2022-09-12T03:56:11.175Z,15.59
2022-09-12T04:01:15.305Z,15.54
2022-09-12T04:06:18.197Z,15.60
2022-09-12T04:11:21.574Z,15.73
2022-09-12T04:16:23.100Z,15.61
2022-09-12T04:21:27.432Z,15.59
2022-09-12T04:26:29.758Z,15.54
2022-09-12T04:31:31.006Z,15.49
2022-09-12T04:36:34.229Z,15.48
2022-09-12T04:41:38.244Z,15.43
2022-09-12T04:46:43.177Z,15.38
2022-09-12T04:51:45.010Z,15.41
2022-09-12T04:56:49.178Z,15.42
2022-09-12T05:01:50.494Z,15.37
2022-09-12T05:06:52.096Z,15.41
2022-09-12T05:12:09.176Z,15.30
2022-09-12T05:17:10.645Z,15.28
2022-09-12T05:22:11.928Z,15.31
2022-09-12T05:27:13.190Z,15.26
2022-09-12T05:32:14.554Z,15.29
2022-09-12T05:37:15.805Z,15.32
2022-09-12T05:42:17.032Z,15.40
2022-09-12T05:47:19.217Z,15.43
2022-09-12T05:52:20.806Z,15.50
2022-09-12T05:57:22.065Z,15.62
2022-09-12T06:02:23.409Z,15.77
2022-09-12T06:07:24.754Z,15.85
2022-09-12T06:12:28.997Z,15.85
2022-09-12T06:17:30.456Z,15.99
2022-09-12T06:22:31.757Z,16.20
2022-09-12T06:27:33.060Z,16.32
2022-09-12T06:32:34.764Z,16.50
2022-09-12T06:37:36.046Z,16.69
2022-09-12T06:42:37.279Z,16.86
2022-09-12T06:47:39.638Z,16.98
2022-09-12T06:52:40.949Z,16.94
2022-09-12T06:57:42.278Z,17.19
2022-09-12T07:02:43.670Z,17.13
2022-09-12T07:07:44.986Z,17.17
2022-09-12T07:12:47.651Z,17.45
2022-09-12T07:17:48.883Z,17.63
2022-09-12T07:22:50.608Z,17.79
2022-09-12T07:27:52.974Z,18.04
2022-09-12T07:32:54.717Z,18.17
2022-09-12T07:37:56.145Z,18.38
2022-09-12T07:42:57.411Z,18.60
2022-09-12T07:47:58.753Z,18.63
2022-09-12T07:53:00.141Z,19.03
2022-09-12T07:58:01.433Z,19.19
2022-09-12T08:03:03.719Z,19.33
2022-09-12T08:08:05.603Z,19.76
2022-09-12T08:13:10.712Z,19.87
2022-09-12T08:18:12.178Z,20.13
2022-09-12T08:23:13.422Z,20.46
2022-09-12T08:28:14.669Z,20.73
2022-09-12T08:33:15.937Z,20.96
2022-09-12T08:38:17.425Z,21.30
2022-09-12T08:43:31.114Z,21.66
2022-09-12T08:48:32.481Z,21.69
2022-09-12T08:53:35.860Z,21.91
2022-09-12T08:58:44.471Z,22.23
2022-09-12T09:04:07.558Z,22.35
2022-09-12T09:09:15.723Z,22.48
2022-09-12T09:14:49.382Z,23.06
2022-09-12T09:20:34.430Z,23.06
2022-09-12T09:25:48.791Z,23.62
2022-09-12T09:30:51.127Z,24.13
2022-09-12T09:36:05.821Z,24.10
2022-09-12T09:41:20.577Z,24.37
2022-09-12T09:46:21.971Z,24.61
2022-09-12T09:51:27.262Z,24.95
2022-09-12T09:56:33.934Z,25.21
2022-09-12T10:01:35.296Z,25.26
2022-09-12T10:06:37.875Z,25.22
2022-09-12T10:11:43.698Z,26.31
2022-09-12T10:16:54.906Z,28.08
2022-09-12T10:21:56.730Z,29.44
2022-09-12T10:27:08.024Z,28.84
2022-09-12T10:32:09.776Z,28.39
2022-09-12T10:37:19.422Z,28.49
2022-09-12T10:42:44.391Z,30.62
2022-09-12T10:47:46.588Z,31.29
2022-09-12T10:52:47.962Z,31.75
2022-09-12T10:58:23.817Z,31.88
2022-09-12T11:03:47.799Z,32.70
2022-09-12T11:08:55.288Z,32.23
2022-09-12T11:14:06.824Z,32.83
2022-09-12T11:19:32.951Z,35.37
2022-09-12T11:25:10.399Z,37.80
2022-09-12T11:30:14.977Z,40.01
2022-09-12T11:35:24.801Z,40.16
2022-09-12T11:40:50.205Z,40.42
2022-09-12T11:45:53.145Z,41.67
2022-09-12T11:50:54.843Z,42.73
2022-09-12T11:56:11.950Z,40.78
2022-09-12T12:01:24.966Z,40.70
2022-09-12T12:06:39.748Z,42.36
2022-09-12T12:11:47.442Z,43.54
2022-09-12T12:16:49.929Z,43.85
2022-09-12T12:21:51.812Z,44.45
2022-09-12T12:26:53.291Z,44.45
2022-09-12T12:32:03.754Z,44.90
2022-09-12T12:37:22.753Z,44.64
2022-09-12T12:42:36.184Z,44.68
2022-09-12T12:47:37.505Z,45.00
2022-09-12T12:53:03.307Z,41.62
2022-09-12T12:58:24.947Z,42.34
2022-09-12T13:03:30.466Z,42.90
2022-09-12T13:08:34.715Z,41.23
2022-09-12T13:13:38.998Z,37.80
2022-09-12T13:18:47.890Z,36.01
2022-09-12T13:24:04.312Z,34.69
2022-09-12T13:29:26.695Z,33.72
2022-09-12T13:34:33.829Z,33.20
2022-09-12T13:39:44.088Z,33.00
2022-09-12T13:44:49.651Z,32.81
2022-09-12T13:49:51.345Z,32.07
2022-09-12T13:54:56.005Z,31.05
2022-09-12T13:59:58.309Z,30.62
2022-09-12T14:05:11.891Z,29.90
2022-09-12T14:10:19.896Z,29.40
2022-09-12T14:15:25.073Z,29.41
2022-09-12T14:20:31.802Z,29.12
2022-09-12T14:25:39.680Z,28.68
2022-09-12T14:30:41.264Z,28.38
2022-09-12T14:35:45.555Z,28.24
2022-09-12T14:41:00.972Z,27.90
2022-09-12T14:46:14.938Z,27.62
2022-09-12T14:51:22.614Z,27.43
2022-09-12T14:56:44.933Z,27.24
2022-09-12T15:01:46.208Z,26.92
2022-09-12T15:06:47.643Z,26.51
2022-09-12T15:11:48.994Z,26.36
2022-09-12T15:16:50.279Z,26.25
2022-09-12T15:21:51.693Z,26.13
2022-09-12T15:26:53.639Z,25.99
2022-09-12T15:31:54.917Z,25.93
2022-09-12T15:36:56.140Z,25.72
2022-09-12T15:41:57.489Z,25.66
2022-09-12T15:46:58.744Z,25.53
2022-09-12T15:52:00.399Z,25.40
2022-09-12T15:57:01.662Z,25.31
2022-09-12T16:02:03.369Z,25.17
2022-09-12T16:07:04.999Z,25.06
2022-09-12T16:12:06.448Z,24.99
2022-09-12T16:17:08.009Z,24.97
2022-09-12T16:22:09.242Z,24.86
2022-09-12T16:27:10.592Z,24.78
2022-09-12T16:32:11.906Z,24.72
2022-09-12T16:37:13.206Z,24.53
2022-09-12T16:42:17.761Z,24.34
2022-09-12T16:47:19.697Z,24.26
2022-09-12T16:52:21.289Z,24.22
2022-09-12T16:57:24.712Z,24.18
2022-09-12T17:02:26.487Z,24.02
2022-09-12T17:07:27.827Z,24.03
2022-09-12T17:12:29.426Z,23.92
2022-09-12T17:17:31.764Z,23.81
2022-09-12T17:22:33.402Z,23.76
2022-09-12T17:27:34.681Z,23.76
2022-09-12T17:32:35.928Z,23.71
2022-09-12T17:37:37.228Z,23.65
2022-09-12T17:42:39.361Z,23.52
2022-09-12T17:47:40.902Z,23.44
2022-09-12T17:52:42.930Z,23.34
2022-09-12T17:57:45.644Z,23.29
2022-09-12T18:02:47.469Z,23.20
2022-09-12T18:07:48.773Z,23.07
2022-09-12T18:12:50.647Z,22.89
2022-09-12T18:17:51.914Z,22.85
2022-09-12T18:22:53.218Z,22.75
2022-09-12T18:27:54.677Z,22.68
2022-09-12T18:32:55.951Z,22.59
2022-09-12T18:37:57.295Z,22.64
2022-09-12T18:42:59.357Z,22.54
2022-09-12T18:48:00.835Z,22.44
2022-09-12T18:53:02.140Z,22.38
2022-09-12T18:58:03.465Z,22.33
2022-09-12T19:03:04.757Z,22.27
2022-09-12T19:08:06.154Z,22.15
2022-09-12T19:13:07.462Z,22.12
2022-09-12T19:18:09.432Z,21.97
2022-09-12T19:23:10.773Z,21.87
2022-09-12T19:28:12.564Z,21.86
2022-09-12T19:33:14.212Z,21.85
2022-09-12T19:38:15.969Z,21.75
2022-09-12T19:43:17.212Z,21.59
2022-09-12T19:48:20.110Z,21.56
2022-09-12T19:53:21.476Z,21.57
2022-09-12T19:58:22.728Z,21.52
2022-09-12T20:03:24.305Z,21.42
2022-09-12T20:08:26.107Z,21.32
2022-09-12T20:13:27.945Z,21.10
2022-09-12T20:18:29.239Z,20.98
2022-09-12T20:23:30.802Z,20.85
2022-09-12T20:28:32.211Z,20.80
2022-09-12T20:33:33.814Z,20.71
2022-09-12T20:38:35.840Z,20.69
2022-09-12T20:43:38.500Z,20.57
2022-09-12T20:48:39.792Z,20.52
2022-09-12T20:53:41.158Z,20.44
2022-09-12T20:58:44.320Z,20.35
2022-09-12T21:03:46.395Z,20.27
2022-09-12T21:08:48.553Z,20.25
2022-09-12T21:13:51.669Z,20.14
2022-09-12T21:18:55.069Z,20.04
2022-09-12T21:24:02.578Z,19.96
2022-09-12T21:29:03.841Z,19.94
2022-09-12T21:34:05.140Z,19.83
2022-09-12T21:39:06.894Z,19.80
2022-09-12T21:44:08.157Z,19.74
2022-09-12T21:49:09.576Z,19.70
2022-09-12T21:54:10.953Z,19.67
2022-09-12T21:59:12.203Z,19.60
2022-09-12T22:04:13.642Z,19.66
2022-09-12T22:09:16.964Z,19.68
2022-09-12T22:14:18.494Z,19.53
2022-09-12T22:19:20.221Z,19.47
2022-09-12T22:24:27.382Z,19.43
2022-09-12T22:29:28.637Z,19.39
2022-09-12T22:34:30.328Z,19.40
2022-09-12T22:39:32.166Z,19.27
2022-09-12T22:44:34.055Z,19.23
2022-09-12T22:49:35.326Z,19.24
2022-09-12T22:54:37.587Z,19.22
2022-09-12T22:59:38.976Z,19.23
2022-09-12T23:04:40.586Z,19.32
2022-09-12T23:09:42.007Z,19.32
2022-09-12T23:14:43.328Z,19.30
2022-09-12T23:19:45.473Z,19.21
2022-09-12T23:24:47.118Z,19.29
2022-09-12T23:29:52.235Z,19.26
2022-09-12T23:34:53.644Z,19.11
2022-09-12T23:39:55.300Z,19.11
2022-09-12T23:44:56.653Z,19.02
2022-09-12T23:49:57.934Z,19.03
2022-09-12T23:54:59.256Z,18.99
